Time;durP1;ratioP1;P1;durP2;ratioP2;P2;SDS_P1;SDS_P2;PMS_P1;PMS_P2;Temp;Humidity;BMP_temperature;BMP_pressure;BME280_temperature;BME280_humidity;BME280_pressure;Samples;Min_cycle;Max_cycle;Signal;HPM_P1;HPM_P2
2022/02/15 00:01:50;;;;;;;5.45;2.50;;;10.00;63.90;;;;;;4982631;28;20037;-68
2022/02/15 00:04:17;;;;;;;4.47;2.42;;;10.00;63.50;;;;;;4982732;28;20129;-68
2022/02/15 00:06:43;;;;;;;5.68;2.17;;;9.90;63.60;;;;;;4985016;28;20031;-67
2022/02/15 00:09:09;;;;;;;5.32;2.08;;;9.90;63.60;;;;;;4985603;28;20030;-68
2022/02/15 00:11:36;;;;;;;6.72;2.38;;;9.90;63.90;;;;;;4982990;28;20048;-68
2022/02/15 00:14:02;;;;;;;6.40;2.58;;;9.90;64.10;;;;;;4999508;28;20600;-68
2022/02/15 00:16:28;;;;;;;7.28;2.85;;;9.90;63.80;;;;;;4983027;28;20030;-68
2022/02/15 00:18:54;;;;;;;6.47;2.83;;;9.80;63.80;;;;;;4982934;28;20033;-68
2022/02/15 00:21:20;;;;;;;4.07;2.45;;;9.80;64.20;;;;;;4983463;28;20042;-68
2022/02/15 00:23:46;;;;;;;3.97;2.47;;;9.80;64.20;;;;;;4986156;28;20104;-69
2022/02/15 00:26:12;;;;;;;4.32;2.15;;;9.80;64.50;;;;;;4984881;28;20035;-68
2022/02/15 00:28:38;;;;;;;5.97;2.17;;;9.80;64.30;;;;;;4986436;28;20069;-68
2022/02/15 00:31:04;;;;;;;3.63;2.28;;;9.80;64.60;;;;;;4994263;28;20188;-68
2022/02/15 00:33:30;;;;;;;5.25;2.40;;;9.80;65.00;;;;;;4985963;28;20078;-68
2022/02/15 00:35:57;;;;;;;6.45;2.75;;;9.80;64.80;;;;;;4987520;28;20796;-68
2022/02/15 00:38:24;;;;;;;5.10;2.40;;;9.70;65.30;;;;;;4987539;28;20022;-68
2022/02/15 00:40:50;;;;;;;5.03;2.60;;;9.70;65.90;;;;;;4989218;28;20034;-68
2022/02/15 00:43:15;;;;;;;4.88;2.30;;;9.60;66.30;;;;;;4982812;28;20828;-68
2022/02/15 00:45:41;;;;;;;5.93;2.40;;;9.60;66.70;;;;;;4983984;28;20030;-68
2022/02/15 00:48:07;;;;;;;4.07;2.10;;;9.60;66.70;;;;;;4988193;28;20040;-68
2022/02/15 00:50:33;;;;;;;5.70;2.70;;;9.60;66.70;;;;;;4993231;28;20065;-68
2022/02/15 00:52:59;;;;;;;7.82;2.90;;;9.60;67.00;;;;;;4985904;28;20090;-68
2022/02/15 00:55:25;;;;;;;7.70;2.80;;;9.60;66.40;;;;;;4987283;28;20073;-68
2022/02/15 00:57:51;;;;;;;7.25;2.70;;;9.60;66.80;;;;;;4994670;28;20161;-68
2022/02/15 01:00:16;;;;;;;5.03;2.35;;;9.60;67.40;;;;;;4987328;28;20624;-68
2022/02/15 01:02:44;;;;;;;5.00;2.55;;;9.60;68.00;;;;;;4985593;28;20176;-68
2022/02/15 01:05:10;;;;;;;7.32;2.78;;;9.60;67.60;;;;;;4985219;28;20034;-68
2022/02/15 01:07:37;;;;;;;12.90;2.80;;;9.60;67.50;;;;;;4984204;28;20034;-68
2022/02/15 01:10:05;;;;;;;6.97;2.97;;;9.50;67.40;;;;;;4984185;28;20073;-68
2022/02/15 01:12:30;;;;;;;4.97;2.35;;;9.60;68.10;;;;;;4973664;28;20032;-68
2022/02/15 01:14:56;;;;;;;3.50;2.50;;;9.50;68.10;;;;;;4999602;28;20030;-68
2022/02/15 01:17:22;;;;;;;5.97;3.22;;;9.50;68.20;;;;;;4993035;28;20160;-67
2022/02/15 01:19:48;;;;;;;3.72;2.65;;;9.50;68.30;;;;;;4984837;28;20026;-68
2022/02/15 01:22:14;;;;;;;5.65;2.75;;;9.50;68.60;;;;;;4984143;28;20046;-68
2022/02/15 01:24:39;;;;;;;3.60;2.25;;;9.40;68.60;;;;;;4984689;28;20443;-68
2022/02/15 01:27:05;;;;;;;3.17;1.90;;;9.40;68.60;;;;;;4984989;28;20157;-68
2022/02/15 01:29:31;;;;;;;5.10;2.33;;;9.40;68.60;;;;;;4985246;28;20034;-68
2022/02/15 01:31:57;;;;;;;4.63;2.65;;;9.40;68.50;;;;;;4988906;28;20026;-68
2022/02/15 01:34:23;;;;;;;4.68;2.50;;;9.40;68.80;;;;;;4983451;28;20038;-68
2022/02/15 01:36:49;;;;;;;4.57;2.20;;;9.40;69.50;;;;;;4976325;28;20026;-68
2022/02/15 01:39:20;;;;;;;6.50;2.72;;;9.40;69.00;;;;;;5000232;28;20026;-68
2022/02/15 01:41:46;;;;;;;6.47;2.45;;;9.40;69.50;;;;;;4977521;28;20088;-68
2022/02/15 01:44:12;;;;;;;5.30;2.65;;;9.40;69.80;;;;;;4988293;28;20104;-68
2022/02/15 01:46:40;;;;;;;7.03;2.55;;;9.30;70.30;;;;;;4981972;28;20054;-68
2022/02/15 01:49:06;;;;;;;5.43;2.58;;;9.30;70.20;;;;;;4984812;28;20038;-68
2022/02/15 01:51:32;;;;;;;5.43;2.28;;;9.20;70.40;;;;;;4967983;28;20030;-68
2022/02/15 01:53:58;;;;;;;6.88;2.58;;;9.20;70.80;;;;;;4984539;28;20029;-68
2022/02/15 01:56:26;;;;;;;7.57;2.58;;;9.10;70.90;;;;;;4982970;28;20584;-68
2022/02/15 01:58:55;;;;;;;5.47;2.33;;;9.10;71.20;;;;;;4987307;28;20596;-68
2022/02/15 02:01:22;;;;;;;4.05;2.50;;;9.00;71.70;;;;;;4987817;28;20030;-68
2022/02/15 02:04:04;;;;;;;6.47;2.40;;;8.90;72.30;;;;;;4973623;28;21017;-68
2022/02/15 02:06:30;;;;;;;5.15;2.67;;;8.80;72.70;;;;;;4983372;28;20064;-68
2022/02/15 02:08:59;;;;;;;3.60;2.25;;;8.80;72.90;;;;;;4983568;28;20125;-68
2022/02/15 02:11:25;;;;;;;4.43;2.30;;;8.70;73.30;;;;;;4979300;28;20826;-68
2022/02/15 02:13:57;;;;;;;9.52;2.90;;;8.70;73.70;;;;;;4978196;28;20026;-67
2022/02/15 02:16:31;;;;;;;5.03;2.42;;;8.60;74.10;;;;;;4983951;28;20033;-68
2022/02/15 02:19:14;;;;;;;6.80;3.00;;;8.60;74.40;;;;;;4983026;28;20563;-68
2022/02/15 02:21:40;;;;;;;5.38;2.75;;;8.60;74.90;;;;;;4983485;28;20050;-68
2022/02/15 02:24:09;;;;;;;9.13;2.60;;;8.60;74.90;;;;;;4983739;28;20402;-68
2022/02/15 02:26:37;;;;;;;6.07;2.80;;;8.50;75.40;;;;;;4982631;28;20139;-68
2022/02/15 02:29:04;;;;;;;4.00;2.53;;;8.50;75.70;;;;;;4980859;28;20773;-68
2022/02/15 02:31:34;;;;;;;7.85;2.50;;;8.40;76.10;;;;;;4982393;28;20034;-68
2022/02/15 02:34:04;;;;;;;4.40;2.58;;;8.30;76.70;;;;;;4983553;28;20275;-68
2022/02/15 02:36:30;;;;;;;3.25;2.40;;;8.30;76.90;;;;;;4983664;28;20561;-68
2022/02/15 02:38:55;;;;;;;3.75;2.30;;;8.20;77.10;;;;;;4987924;28;20476;-68
2022/02/15 02:41:21;;;;;;;6.25;3.03;;;8.10;77.30;;;;;;4983590;28;20034;-68
2022/02/15 02:43:47;;;;;;;4.82;2.53;;;8.10;77.80;;;;;;4982020;28;21127;-68
2022/02/15 02:46:14;;;;;;;4.43;2.58;;;8.00;78.00;;;;;;4991347;28;20548;-68
2022/02/15 02:48:43;;;;;;;5.43;2.65;;;8.00;78.50;;;;;;4983713;28;20046;-68
2022/02/15 02:51:09;;;;;;;5.60;2.83;;;7.90;78.80;;;;;;4999309;28;20521;-68
2022/02/15 02:53:35;;;;;;;6.30;2.50;;;7.90;79.30;;;;;;4980599;28;20031;-68
2022/02/15 02:56:01;;;;;;;9.20;2.90;;;7.80;79.60;;;;;;4988282;28;20036;-68
2022/02/15 02:58:30;;;;;;;5.05;2.50;;;7.80;79.90;;;;;;4984745;28;20112;-68
2022/02/15 03:00:57;;;;;;;3.53;2.03;;;7.70;80.00;;;;;;4999128;28;20065;-68
2022/02/15 03:03:27;;;;;;;4.18;2.30;;;7.70;80.40;;;;;;4980643;28;20042;-68
2022/02/15 03:05:55;;;;;;;7.07;3.03;;;7.70;80.80;;;;;;4981643;28;20031;-68
2022/02/15 03:08:21;;;;;;;5.28;2.55;;;7.70;81.60;;;;;;4983447;28;20034;-68
2022/02/15 03:10:49;;;;;;;6.80;2.63;;;7.70;81.60;;;;;;4972898;28;20042;-68
2022/02/15 03:13:31;;;;;;;4.68;2.50;;;7.70;81.60;;;;;;4979635;28;20781;-68
2022/02/15 03:15:57;;;;;;;5.40;2.55;;;7.70;81.70;;;;;;4979657;28;20053;-68
2022/02/15 03:18:23;;;;;;;5.80;2.60;;;7.70;81.80;;;;;;4982320;28;20926;-68
2022/02/15 03:20:51;;;;;;;7.55;2.92;;;7.60;82.10;;;;;;4990314;28;20073;-69
2022/02/15 03:23:16;;;;;;;6.07;2.40;;;7.60;82.50;;;;;;4987647;28;20031;-68
2022/02/15 03:25:43;;;;;;;3.78;2.25;;;7.50;82.80;;;;;;4974411;28;20038;-68
2022/02/15 03:28:10;;;;;;;3.22;2.40;;;7.60;82.90;;;;;;4987865;28;20037;-68
2022/02/15 03:30:36;;;;;;;4.38;2.22;;;7.50;83.00;;;;;;4982443;28;20037;-68
2022/02/15 03:33:02;;;;;;;4.80;2.50;;;7.50;83.00;;;;;;4968064;28;20042;-68
2022/02/15 03:35:29;;;;;;;4.53;2.92;;;7.50;83.40;;;;;;4981819;28;20058;-68
2022/02/15 03:38:03;;;;;;;5.20;2.80;;;7.50;83.60;;;;;;4971485;28;20764;-67
2022/02/15 03:43:18;;;;;;;3.90;2.45;;;7.50;83.90;;;;;;4982655;28;20034;-68
2022/02/15 03:45:46;;;;;;;5.63;2.70;;;7.50;84.20;;;;;;4982098;28;20478;-68
2022/02/15 03:48:14;;;;;;;4.75;3.17;;;7.50;84.50;;;;;;4984610;28;20632;-68
2022/02/15 03:50:43;;;;;;;5.13;2.80;;;7.50;84.70;;;;;;4983086;28;20550;-68
2022/02/15 03:53:10;;;;;;;4.40;2.38;;;7.50;84.70;;;;;;4981797;28;20037;-68
2022/02/15 03:55:37;;;;;;;3.50;2.42;;;7.50;84.80;;;;;;4984251;28;20034;-68
2022/02/15 03:58:04;;;;;;;6.35;2.88;;;7.50;84.80;;;;;;4988638;28;20234;-68
2022/02/15 04:00:30;;;;;;;3.40;2.17;;;7.50;84.90;;;;;;4993258;28;20030;-68
2022/02/15 04:03:05;;;;;;;7.90;2.95;;;7.50;84.70;;;;;;4986126;28;20108;-68
2022/02/15 04:05:31;;;;;;;5.38;2.65;;;7.50;84.90;;;;;;4985361;28;20038;-68
2022/02/15 04:07:58;;;;;;;3.80;2.67;;;7.50;84.90;;;;;;4981856;28;20034;-68
2022/02/15 04:10:24;;;;;;;8.10;2.70;;;7.40;84.90;;;;;;4969696;28;20741;-68
2022/02/15 04:12:50;;;;;;;5.15;2.17;;;7.40;85.40;;;;;;4985667;28;20499;-68
2022/02/15 04:15:18;;;;;;;4.60;2.83;;;7.40;85.60;;;;;;4987788;28;20037;-68
2022/02/15 04:17:49;;;;;;;7.13;3.17;;;7.40;85.40;;;;;;4986784;28;20331;-68
2022/02/15 04:20:16;;;;;;;4.68;2.47;;;7.40;85.30;;;;;;4991409;28;20023;-68
2022/02/15 04:22:42;;;;;;;3.38;2.70;;;7.30;85.40;;;;;;4994289;28;20100;-68
2022/02/15 04:25:11;;;;;;;5.53;2.85;;;7.30;85.60;;;;;;4982006;28;20037;-68
2022/02/15 04:27:38;;;;;;;8.15;3.10;;;7.30;85.80;;;;;;4985841;28;20033;-68
2022/02/15 04:30:06;;;;;;;8.07;3.28;;;7.30;86.10;;;;;;4986295;28;20034;-68
2022/02/15 04:32:33;;;;;;;5.53;2.88;;;7.20;86.70;;;;;;4985551;28;20080;-68
2022/02/15 04:34:59;;;;;;;5.68;2.70;;;7.20;87.30;;;;;;4974451;28;20109;-68
2022/02/15 04:37:26;;;;;;;7.28;3.35;;;7.30;86.80;;;;;;4985361;28;20022;-68
2022/02/15 04:39:52;;;;;;;4.95;3.10;;;7.30;87.10;;;;;;4985380;28;20060;-68
2022/02/15 04:42:19;;;;;;;6.43;2.88;;;7.30;86.90;;;;;;4981520;28;20032;-68
2022/02/15 04:44:45;;;;;;;6.03;3.33;;;7.20;87.50;;;;;;4979535;28;20305;-68
2022/02/15 04:47:18;;;;;;;6.60;3.00;;;7.30;87.60;;;;;;4986953;28;20041;-68
2022/02/15 04:49:44;;;;;;;7.07;3.08;;;7.20;87.80;;;;;;4995172;28;20038;-68
2022/02/15 04:52:10;;;;;;;5.70;3.17;;;7.30;87.40;;;;;;4984600;28;20469;-68
2022/02/15 04:54:38;;;;;;;6.38;2.83;;;7.30;86.90;;;;;;4996047;28;20602;-68
2022/02/15 04:57:04;;;;;;;7.10;3.53;;;7.30;87.10;;;;;;4984745;28;20030;-68
2022/02/15 04:59:32;;;;;;;6.07;3.35;;;7.20;87.40;;;;;;4974556;28;20026;-68
2022/02/15 05:01:58;;;;;;;6.07;3.40;;;7.20;87.80;;;;;;4984939;28;20125;-68
2022/02/15 05:07:08;;;;;;;7.28;3.45;;;7.20;88.00;;;;;;4981181;28;20031;-68
2022/02/15 05:09:39;;;;;;;6.30;3.47;;;7.10;88.20;;;;;;4984484;28;20041;-68
2022/02/15 05:12:06;;;;;;;5.95;3.30;;;7.10;88.50;;;;;;4984755;28;20383;-68
2022/02/15 05:14:33;;;;;;;5.13;3.05;;;7.10;88.60;;;;;;4982055;28;20487;-68
2022/02/15 05:16:59;;;;;;;5.70;3.50;;;7.10;88.80;;;;;;4984957;28;20057;-68
2022/02/15 05:19:30;;;;;;;5.38;3.13;;;7.10;89.00;;;;;;4986859;28;20478;-68
2022/02/15 05:22:01;;;;;;;6.00;3.30;;;7.10;89.30;;;;;;5000463;28;20814;-68
2022/02/15 05:24:35;;;;;;;4.90;3.20;;;7.10;89.10;;;;;;4985121;28;20045;-68
2022/02/15 05:27:02;;;;;;;4.95;3.10;;;7.10;89.80;;;;;;4984233;28;20034;-68
2022/02/15 05:29:35;;;;;;;5.78;3.30;;;7.10;89.50;;;;;;4990271;28;20040;-69
2022/02/15 05:32:24;;;;;;;6.45;3.53;;;7.10;89.40;;;;;;4986738;28;20038;-69
2022/02/15 05:34:52;;;;;;;4.88;3.13;;;7.10;89.40;;;;;;4986130;28;20026;-70
2022/02/15 05:37:19;;;;;;;4.75;2.92;;;7.00;89.60;;;;;;4981882;28;20035;-69
2022/02/15 05:39:49;;;;;;;5.00;3.20;;;7.10;89.70;;;;;;4976024;28;20041;-69
2022/02/15 05:42:24;;;;;;;8.55;3.38;;;7.10;89.50;;;;;;4984007;28;20826;-70
2022/02/15 05:44:51;;;;;;;9.48;3.40;;;7.00;89.50;;;;;;4993741;28;20026;-69
2022/02/15 05:47:16;;;;;;;6.93;3.88;;;7.00;89.50;;;;;;4993073;28;20045;-70
2022/02/15 05:52:39;;;;;;;5.32;3.20;;;6.90;90.00;;;;;;4998721;28;20096;-69
2022/02/15 05:55:12;;;;;;;4.25;2.65;;;6.90;90.10;;;;;;4988076;28;20022;-69
2022/02/15 05:57:38;;;;;;;5.82;3.60;;;6.90;90.10;;;;;;4997470;28;20125;-68
2022/02/15 06:00:12;;;;;;;7.05;3.47;;;6.90;90.20;;;;;;4989825;28;20022;-68
2022/02/15 06:02:42;;;;;;;6.80;3.30;;;6.90;90.10;;;;;;4990582;28;20073;-68
2022/02/15 06:05:13;;;;;;;6.22;3.25;;;6.90;90.20;;;;;;4989815;28;20486;-69
2022/02/15 06:07:43;;;;;;;7.35;3.45;;;6.90;90.30;;;;;;4984517;28;20030;-69
2022/02/15 06:10:20;;;;;;;7.20;3.60;;;6.90;90.30;;;;;;5004064;28;20030;-69
2022/02/15 06:12:49;;;;;;;7.30;3.60;;;6.90;90.40;;;;;;4987248;28;20031;-68
2022/02/15 06:15:15;;;;;;;7.50;3.20;;;6.90;90.30;;;;;;4990115;28;20124;-68
2022/02/15 06:17:58;;;;;;;6.32;3.65;;;7.00;90.20;;;;;;4993903;28;20038;-69
2022/02/15 06:20:25;;;;;;;7.15;3.42;;;7.00;90.10;;;;;;4991321;28;20117;-69
2022/02/15 06:22:53;;;;;;;6.10;3.30;;;7.00;90.10;;;;;;4982785;28;20070;-68
2022/02/15 06:25:18;;;;;;;5.25;3.30;;;7.20;90.00;;;;;;4982464;28;20104;-68
2022/02/15 06:27:48;;;;;;;6.53;3.30;;;7.20;89.80;;;;;;4981578;28;20030;-68
2022/02/15 06:30:36;;;;;;;7.15;3.45;;;7.30;89.50;;;;;;4987701;28;20030;-70
2022/02/15 06:33:06;;;;;;;5.32;3.00;;;7.20;89.20;;;;;;4985820;28;20033;-70
2022/02/15 06:35:32;;;;;;;6.15;3.33;;;7.30;89.20;;;;;;4985375;28;20081;-70
2022/02/15 06:38:03;;;;;;;6.13;3.22;;;7.20;89.20;;;;;;4983025;28;20121;-69
2022/02/15 06:40:29;;;;;;;7.53;3.40;;;7.30;89.10;;;;;;4986260;28;20030;-70
2022/02/15 06:43:00;;;;;;;8.32;3.55;;;7.30;89.00;;;;;;4982407;28;20026;-70
2022/02/15 06:45:26;;;;;;;6.72;3.35;;;7.30;88.90;;;;;;4974579;28;20033;-70
2022/02/15 06:47:53;;;;;;;9.27;3.30;;;7.30;88.60;;;;;;4980853;28;20068;-70
2022/02/15 06:50:19;;;;;;;6.82;3.50;;;7.30;88.60;;;;;;4993946;28;20478;-70
2022/02/15 06:52:47;;;;;;;7.05;3.40;;;7.30;88.50;;;;;;4982107;28;20069;-70
2022/02/15 06:55:20;;;;;;;7.30;2.97;;;7.30;88.60;;;;;;4990848;28;20096;-70
2022/02/15 06:57:46;;;;;;;9.68;3.08;;;7.30;88.60;;;;;;4970836;28;20053;-70
2022/02/15 07:00:16;;;;;;;5.20;2.78;;;7.30;88.60;;;;;;5000583;28;20133;-70
2022/02/15 07:02:42;;;;;;;4.07;2.50;;;7.30;88.20;;;;;;4990785;28;20058;-70
2022/02/15 07:05:11;;;;;;;8.55;3.10;;;7.30;88.20;;;;;;5001098;28;20778;-70
2022/02/15 07:07:39;;;;;;;6.43;2.83;;;7.20;88.10;;;;;;4981584;28;20041;-70
2022/02/15 07:10:10;;;;;;;4.70;2.40;;;7.20;88.00;;;;;;4993229;28;20054;-70
2022/02/15 07:12:50;;;;;;;6.70;2.70;;;7.20;88.00;;;;;;4997299;28;20501;-70
2022/02/15 07:15:19;;;;;;;7.50;3.08;;;7.20;88.10;;;;;;4999146;28;20018;-70
2022/02/15 07:17:50;;;;;;;5.63;2.58;;;7.10;88.40;;;;;;4982050;28;20026;-70
2022/02/15 07:20:21;;;;;;;7.70;2.75;;;7.10;88.40;;;;;;4967022;28;20030;-70
2022/02/15 07:23:07;;;;;;;5.03;2.50;;;7.10;88.60;;;;;;4984149;28;20037;-70
2022/02/15 07:25:43;;;;;;;4.25;2.25;;;7.10;88.80;;;;;;4985892;28;20038;-67
2022/02/15 07:28:34;;;;;;;6.47;3.20;;;7.00;88.80;;;;;;4988743;28;20396;-70
2022/02/15 07:31:00;;;;;;;5.20;2.88;;;7.00;88.70;;;;;;4991971;28;20034;-70
2022/02/15 07:33:26;;;;;;;5.65;2.47;;;7.00;88.50;;;;;;4988343;28;20045;-69
2022/02/15 07:35:52;;;;;;;5.07;2.70;;;7.00;88.50;;;;;;4989429;28;20035;-69
2022/02/15 07:38:17;;;;;;;5.63;3.00;;;7.00;88.80;;;;;;4999854;28;20111;-67
2022/02/15 07:40:43;;;;;;;8.18;2.92;;;6.90;89.30;;;;;;4979964;28;20446;-68
2022/02/15 07:43:09;;;;;;;5.55;2.70;;;6.90;89.50;;;;;;4983587;28;20061;-70
2022/02/15 07:45:58;;;;;;;5.68;2.92;;;7.00;89.70;;;;;;4991808;28;20054;-67
2022/02/15 07:48:23;;;;;;;5.75;2.63;;;7.00;89.50;;;;;;4989141;28;20034;-67
2022/02/15 07:50:49;;;;;;;5.35;2.90;;;7.10;90.00;;;;;;4978599;28;20027;-70
2022/02/15 07:53:15;;;;;;;4.43;2.80;;;7.20;89.40;;;;;;4986809;28;20042;-67
2022/02/15 07:55:41;;;;;;;7.63;2.83;;;7.20;89.20;;;;;;4991065;28;20070;-67
2022/02/15 07:58:10;;;;;;;11.98;3.03;;;7.30;89.40;;;;;;4991340;28;20057;-71
2022/02/15 08:00:36;;;;;;;6.30;2.60;;;7.40;89.20;;;;;;4991086;28;20034;-70
2022/02/15 08:03:02;;;;;;;7.00;2.92;;;7.60;88.30;;;;;;5000738;28;20030;-68
2022/02/15 08:05:28;;;;;;;5.72;2.95;;;7.90;87.00;;;;;;4968579;28;20064;-67
2022/02/15 08:08:01;;;;;;;5.65;2.65;;;8.40;85.90;;;;;;4992650;28;20570;-68
2022/02/15 08:10:27;;;;;;;6.60;3.15;;;8.70;83.50;;;;;;4983396;28;20134;-71
2022/02/15 08:13:01;;;;;;;9.27;3.30;;;8.90;83.00;;;;;;4986728;28;20057;-67
2022/02/15 08:15:32;;;;;;;5.85;3.05;;;9.00;82.20;;;;;;4982839;28;20066;-70
2022/02/15 08:17:59;;;;;;;7.35;2.58;;;9.20;81.50;;;;;;4982225;28;20165;-68
2022/02/15 08:20:25;;;;;;;12.48;3.20;;;9.30;81.10;;;;;;4982852;28;20129;-68
2022/02/15 08:22:52;;;;;;;6.85;2.90;;;9.40;80.30;;;;;;4986624;28;20109;-69
2022/02/15 08:25:19;;;;;;;6.03;2.80;;;9.50;79.80;;;;;;4992472;28;20113;-69
2022/02/15 08:27:45;;;;;;;5.85;2.92;;;9.60;79.50;;;;;;4993884;28;20133;-69
2022/02/15 08:30:12;;;;;;;8.23;2.58;;;9.60;79.50;;;;;;4987826;28;20057;-70
2022/02/15 08:32:38;;;;;;;7.85;2.70;;;9.60;79.40;;;;;;4979363;28;20038;-69
2022/02/15 08:35:05;;;;;;;10.13;3.65;;;9.80;79.60;;;;;;4967749;28;20030;-74
2022/02/15 08:37:35;;;;;;;5.65;3.10;;;10.00;77.80;;;;;;4985872;28;20034;-69
2022/02/15 08:40:03;;;;;;;8.73;3.40;;;10.10;77.60;;;;;;4984710;28;20026;-70
2022/02/15 08:42:29;;;;;;;7.13;3.47;;;10.30;76.30;;;;;;4987920;28;20037;-70
2022/02/15 08:44:55;;;;;;;11.20;3.08;;;10.30;75.70;;;;;;4982197;28;20033;-72
2022/02/15 08:47:23;;;;;;;5.57;2.70;;;10.40;75.40;;;;;;4983346;28;20048;-71
2022/02/15 08:49:51;;;;;;;8.32;2.45;;;10.50;74.90;;;;;;4982097;28;20099;-71
2022/02/15 08:52:23;;;;;;;7.18;2.80;;;10.60;74.20;;;;;;4986715;28;20027;-72
2022/02/15 08:54:50;;;;;;;4.07;2.38;;;10.80;73.30;;;;;;5011252;28;20038;-71
2022/02/15 08:57:15;;;;;;;4.72;2.10;;;10.90;73.80;;;;;;4979253;28;20506;-72
2022/02/15 08:59:42;;;;;;;8.45;3.00;;;10.90;73.90;;;;;;4987514;28;20030;-70
2022/02/15 09:02:08;;;;;;;6.85;3.38;;;11.00;73.60;;;;;;4980368;28;20674;-70
2022/02/15 09:04:35;;;;;;;8.38;2.75;;;11.10;72.40;;;;;;4989705;28;20046;-70
2022/02/15 09:07:04;;;;;;;8.18;3.65;;;11.10;73.20;;;;;;4985620;28;20026;-70
2022/02/15 09:09:31;;;;;;;10.85;4.50;;;11.20;72.60;;;;;;4986933;28;20030;-68
2022/02/15 09:11:57;;;;;;;5.43;2.45;;;11.40;71.20;;;;;;4981573;28;20030;-70
2022/02/15 09:14:22;;;;;;;4.68;2.28;;;11.70;71.80;;;;;;4982945;28;20026;-69
2022/02/15 09:16:48;;;;;;;6.10;2.70;;;12.40;66.60;;;;;;4984076;28;20542;-68
2022/02/15 09:19:15;;;;;;;7.30;2.60;;;13.20;64.90;;;;;;4983391;28;20150;-69
2022/02/15 09:21:40;;;;;;;6.13;2.45;;;14.40;60.00;;;;;;4981210;28;20031;-68
2022/02/15 09:24:10;;;;;;;4.85;3.00;;;15.10;59.10;;;;;;4980638;28;20030;-69
2022/02/15 09:26:36;;;;;;;6.00;2.30;;;15.10;56.70;;;;;;4986574;28;20030;-68
2022/02/15 09:29:03;;;;;;;5.65;2.00;;;14.90;55.90;;;;;;4984248;28;20092;-69
2022/02/15 09:31:31;;;;;;;3.97;2.03;;;14.60;56.30;;;;;;4982534;28;20041;-70
2022/02/15 09:33:56;;;;;;;5.68;2.38;;;14.40;57.50;;;;;;4974282;28;20026;-71
2022/02/15 09:36:26;;;;;;;3.83;2.08;;;14.10;57.70;;;;;;4987421;28;20107;-73
2022/02/15 09:38:54;;;;;;;4.05;2.10;;;13.80;58.60;;;;;;4991208;28;20030;-71
2022/02/15 09:41:21;;;;;;;5.45;2.58;;;13.60;59.40;;;;;;5003012;28;20083;-70
2022/02/15 09:43:47;;;;;;;8.05;2.55;;;13.30;59.80;;;;;;4991571;28;20038;-71
2022/02/15 09:46:14;;;;;;;8.20;2.75;;;13.20;60.40;;;;;;4988036;28;20129;-70
2022/02/15 09:48:45;;;;;;;6.53;2.60;;;13.00;61.20;;;;;;4976321;28;20030;-72
2022/02/15 09:51:13;;;;;;;5.32;2.80;;;12.90;60.80;;;;;;4980062;28;20039;-71
2022/02/15 09:53:39;;;;;;;7.25;3.00;;;12.70;61.90;;;;;;4985939;28;20616;-71
2022/02/15 09:56:06;;;;;;;6.50;3.10;;;12.60;61.50;;;;;;4978376;28;20158;-71
2022/02/15 09:58:33;;;;;;;5.60;2.60;;;12.60;62.70;;;;;;4985417;28;20414;-72
2022/02/15 10:01:01;;;;;;;8.82;3.22;;;12.50;63.40;;;;;;4978974;28;20045;-72
2022/02/15 10:03:27;;;;;;;5.70;2.83;;;12.60;63.30;;;;;;4978559;28;20857;-72
2022/02/15 10:05:53;;;;;;;7.30;3.38;;;12.60;63.20;;;;;;4979744;28;20180;-70
2022/02/15 10:08:29;;;;;;;7.30;3.67;;;12.70;62.60;;;;;;5010437;28;20041;-70
2022/02/15 10:10:55;;;;;;;6.72;3.40;;;12.80;62.80;;;;;;4979364;28;20030;-71
2022/02/15 10:13:21;;;;;;;7.15;3.85;;;12.80;62.30;;;;;;4987383;28;20364;-69
2022/02/15 10:15:48;;;;;;;7.40;3.10;;;12.90;62.20;;;;;;4984382;28;20030;-71
2022/02/15 10:18:25;;;;;;;8.55;3.83;;;12.80;61.70;;;;;;4981751;28;20399;-73
2022/02/15 10:21:04;;;;;;;4.60;3.15;;;12.70;62.30;;;;;;4991557;28;20045;-73
2022/02/15 10:23:35;;;;;;;7.18;3.40;;;12.70;62.50;;;;;;4981153;28;20035;-73
2022/02/15 10:26:32;;;;;;;6.72;3.45;;;12.80;63.00;;;;;;4979699;28;20042;-73
2022/02/15 10:29:23;;;;;;;9.55;4.05;;;12.70;62.60;;;;;;4982827;28;20100;-72
2022/02/15 10:31:53;;;;;;;8.95;3.60;;;12.70;63.20;;;;;;4984941;28;20062;-72
2022/02/15 10:34:19;;;;;;;10.63;3.38;;;12.80;63.00;;;;;;4981056;28;20028;-70
2022/02/15 10:37:03;;;;;;;8.30;4.20;;;12.80;62.00;;;;;;4981934;28;20498;-70
2022/02/15 10:39:36;;;;;;;18.25;10.23;;;12.70;62.50;;;;;;4977333;28;20121;-71
2022/02/15 10:42:07;;;;;;;8.15;3.92;;;12.80;62.90;;;;;;4981457;28;20046;-71
2022/02/15 10:44:57;;;;;;;6.25;3.58;;;12.90;63.10;;;;;;4984845;28;20058;-71
2022/02/15 10:47:23;;;;;;;5.95;3.10;;;12.90;61.90;;;;;;4985164;28;20053;-71
2022/02/15 10:49:49;;;;;;;7.57;3.63;;;12.90;62.20;;;;;;4980695;28;20034;-71
2022/02/15 10:52:15;;;;;;;12.02;5.68;;;12.80;62.10;;;;;;4978913;28;20041;-71
2022/02/15 10:54:42;;;;;;;7.13;3.53;;;12.90;62.10;;;;;;4988801;28;20044;-71
2022/02/15 10:57:14;;;;;;;5.93;3.30;;;12.90;62.00;;;;;;4980104;28;20121;-71
2022/02/15 10:59:42;;;;;;;7.20;3.58;;;13.00;61.70;;;;;;4980394;28;20030;-69
2022/02/15 11:02:16;;;;;;;7.07;3.42;;;13.00;60.40;;;;;;4983510;28;20054;-71
2022/02/15 11:04:43;;;;;;;6.07;2.92;;;12.90;59.70;;;;;;4983344;28;20042;-71
2022/02/15 11:07:11;;;;;;;6.88;3.45;;;12.90;60.20;;;;;;4984671;28;20034;-71
2022/02/15 11:09:49;;;;;;;6.07;3.42;;;12.90;59.90;;;;;;4984426;28;20030;-71
2022/02/15 11:12:24;;;;;;;7.55;3.78;;;12.80;59.30;;;;;;4984648;28;20049;-70
2022/02/15 11:15:00;;;;;;;4.60;2.95;;;12.80;59.10;;;;;;4983696;28;20034;-75
2022/02/15 11:17:26;;;;;;;5.30;3.85;;;12.60;59.30;;;;;;4984106;28;20510;-71
2022/02/15 11:20:15;;;;;;;10.20;7.30;;;12.60;59.80;;;;;;4984090;28;20030;-70
2022/02/15 11:22:46;;;;;;;9.18;6.07;;;12.70;58.80;;;;;;4976638;28;20841;-73
2022/02/15 11:25:12;;;;;;;14.30;7.30;;;12.80;59.70;;;;;;4963782;28;20061;-72
2022/02/15 11:27:38;;;;;;;13.85;8.57;;;12.80;59.60;;;;;;4964913;28;20039;-72
2022/02/15 11:30:12;;;;;;;34.90;15.52;;;12.80;58.60;;;;;;4964744;28;20065;-70
2022/02/15 11:32:44;;;;;;;36.92;14.95;;;12.80;59.30;;;;;;4964341;28;20434;-70
2022/02/15 11:35:16;;;;;;;41.10;16.45;;;12.80;58.80;;;;;;4964981;28;20031;-70
2022/02/15 11:37:43;;;;;;;12.63;6.30;;;12.80;60.10;;;;;;4963980;28;20042;-69
2022/02/15 11:40:14;;;;;;;39.90;15.15;;;12.90;60.60;;;;;;4964592;28;20023;-70
2022/02/15 11:42:51;;;;;;;42.75;17.00;;;13.00;58.60;;;;;;4964813;28;20225;-70
2022/02/15 11:45:28;;;;;;;20.23;11.00;;;13.10;59.50;;;;;;4963874;28;20065;-70
2022/02/15 11:48:14;;;;;;;21.80;11.02;;;13.10;58.20;;;;;;4962384;28;20043;-70
2022/02/15 11:50:48;;;;;;;13.68;6.82;;;13.10;58.90;;;;;;4964135;28;20066;-70
2022/02/15 11:53:19;;;;;;;21.80;11.45;;;13.10;59.10;;;;;;4964437;28;20051;-70
2022/02/15 11:55:47;;;;;;;13.52;7.63;;;13.20;58.90;;;;;;4963821;28;20058;-72
2022/02/15 11:58:13;;;;;;;5.63;3.35;;;13.20;59.10;;;;;;4979234;28;20038;-71
2022/02/15 12:00:41;;;;;;;8.95;3.55;;;13.30;57.20;;;;;;4980919;28;20104;-72
2022/02/15 12:03:07;;;;;;;10.93;6.10;;;13.30;58.00;;;;;;5002752;28;20092;-71
2022/02/15 12:05:42;;;;;;;5.10;4.28;;;13.30;57.50;;;;;;5001771;28;20042;-72
2022/02/15 12:08:08;;;;;;;8.02;4.35;;;13.20;57.40;;;;;;5003755;28;20494;-72
2022/02/15 12:10:37;;;;;;;7.80;4.47;;;12.90;57.70;;;;;;5002814;28;20033;-72
2022/02/15 12:13:05;;;;;;;7.68;3.90;;;12.90;57.80;;;;;;5003276;28;20902;-71
2022/02/15 12:15:37;;;;;;;5.30;2.88;;;12.80;57.80;;;;;;5018149;28;20030;-71
2022/02/15 12:18:03;;;;;;;6.60;2.80;;;12.80;58.80;;;;;;5004261;28;20045;-68
2022/02/15 12:20:29;;;;;;;5.40;3.38;;;12.70;58.80;;;;;;5007009;28;20038;-70
2022/02/15 12:22:55;;;;;;;5.05;3.17;;;12.70;58.50;;;;;;5007132;28;20633;-70
2022/02/15 12:25:44;;;;;;;6.00;3.78;;;12.70;58.60;;;;;;5006164;28;20113;-71
2022/02/15 12:28:10;;;;;;;7.50;4.10;;;12.60;59.00;;;;;;5006875;28;20030;-70
2022/02/15 12:30:43;;;;;;;4.90;3.60;;;12.50;59.00;;;;;;5004938;28;20436;-70
2022/02/15 12:33:10;;;;;;;7.57;4.38;;;12.40;60.30;;;;;;5006490;28;20048;-70
2022/02/15 12:35:35;;;;;;;5.50;3.95;;;12.50;60.40;;;;;;5006699;28;20173;-70
2022/02/15 12:38:01;;;;;;;8.30;4.03;;;12.50;59.80;;;;;;5021440;28;20104;-67
2022/02/15 12:40:29;;;;;;;9.85;4.40;;;12.40;60.50;;;;;;5006008;28;20030;-70
2022/02/15 12:42:55;;;;;;;8.50;4.65;;;12.50;60.20;;;;;;5006190;28;20482;-68
2022/02/15 12:45:21;;;;;;;6.43;4.07;;;12.50;60.70;;;;;;5021585;28;20037;-72
2022/02/15 12:47:47;;;;;;;11.55;5.88;;;12.50;60.20;;;;;;5005960;28;20442;-70
2022/02/15 12:50:14;;;;;;;11.38;5.55;;;12.50;60.60;;;;;;5006867;28;20394;-72
2022/02/15 12:52:41;;;;;;;31.27;17.63;;;12.40;60.60;;;;;;5006636;28;20038;-71
2022/02/15 12:55:17;;;;;;;36.92;20.23;;;12.40;60.60;;;;;;4992880;28;20042;-72
2022/02/15 12:57:46;;;;;;;20.63;10.40;;;12.30;61.60;;;;;;4986970;28;20034;-70
2022/02/15 13:00:14;;;;;;;29.55;15.77;;;12.30;61.40;;;;;;4986282;28;20483;-72
2022/02/15 13:02:45;;;;;;;16.10;9.07;;;12.30;61.50;;;;;;4986525;28;20069;-71
2022/02/15 13:05:11;;;;;;;12.60;8.77;;;12.30;61.80;;;;;;4986252;28;20069;-70
2022/02/15 13:07:50;;;;;;;9.60;5.72;;;12.30;61.60;;;;;;4986838;28;20077;-69
2022/02/15 13:10:22;;;;;;;10.45;6.10;;;12.30;62.00;;;;;;4986158;28;20038;-70